sensor_id;sensor_type;location;lat;lon;timestamp;P1;durP1;ratioP1;P2;durP2;ratioP2
63034;SDS011;59750;53.356;-1.458;2022-12-07T10:27:41;1.95;;;1.52;;
63034;SDS011;59750;53.356;-1.458;2022-12-07T10:30:07;3.00;;;1.23;;
63034;SDS011;59750;53.356;-1.458;2022-12-07T10:32:39;3.72;;;1.08;;
63034;SDS011;59750;53.356;-1.458;2022-12-07T10:37:53;3.05;;;1.65;;
63034;SDS011;59750;53.356;-1.458;2022-12-07T10:43:15;3.00;;;1.77;;
63034;SDS011;59750;53.356;-1.458;2022-12-07T10:48:18;3.60;;;1.20;;
63034;SDS011;59750;53.356;-1.458;2022-12-07T10:56:32;2.35;;;1.10;;
63034;SDS011;59750;53.356;-1.458;2022-12-07T11:04:35;1.70;;;0.68;;
63034;SDS011;59750;53.356;-1.458;2022-12-07T11:23:27;2.63;;;1.10;;
63034;SDS011;59750;53.356;-1.458;2022-12-07T11:41:56;4.05;;;1.45;;
63034;SDS011;59750;53.356;-1.458;2022-12-07T11:45:10;2.33;;;1.13;;
63034;SDS011;59750;53.356;-1.458;2022-12-07T11:47:55;2.45;;;1.15;;
63034;SDS011;59750;53.356;-1.458;2022-12-07T11:52:58;2.67;;;1.30;;
63034;SDS011;59750;53.356;-1.458;2022-12-07T11:58:13;4.22;;;1.20;;
63034;SDS011;59750;53.356;-1.458;2022-12-07T12:03:53;3.20;;;1.08;;
63034;SDS011;59750;53.356;-1.458;2022-12-07T12:06:29;3.85;;;1.13;;
63034;SDS011;59750;53.356;-1.458;2022-12-07T12:08:56;4.13;;;1.27;;
63034;SDS011;59750;53.356;-1.458;2022-12-07T12:11:37;5.50;;;1.00;;
63034;SDS011;59750;53.356;-1.458;2022-12-07T12:22:26;4.22;;;1.25;;
63034;SDS011;59750;53.356;-1.458;2022-12-07T12:25:00;4.65;;;1.33;;
63034;SDS011;59750;53.356;-1.458;2022-12-07T12:27:32;3.63;;;1.00;;
63034;SDS011;59750;53.356;-1.458;2022-12-07T12:30:02;2.97;;;1.20;;
63034;SDS011;59750;53.356;-1.458;2022-12-07T12:32:41;3.20;;;1.05;;
63034;SDS011;59750;53.356;-1.458;2022-12-07T12:37:57;4.03;;;1.23;;
63034;SDS011;59750;53.356;-1.458;2022-12-07T12:41:02;1.83;;;0.80;;
63034;SDS011;59750;53.356;-1.458;2022-12-07T12:51:59;1.73;;;1.05;;
63034;SDS011;59750;53.356;-1.458;2022-12-07T12:57:34;3.22;;;1.08;;
63034;SDS011;59750;53.356;-1.458;2022-12-07T13:02:54;2.42;;;1.17;;
63034;SDS011;59750;53.356;-1.458;2022-12-07T13:05:23;6.65;;;1.35;;
63034;SDS011;59750;53.356;-1.458;2022-12-07T13:10:25;4.90;;;1.05;;
63034;SDS011;59750;53.356;-1.458;2022-12-07T13:12:56;2.75;;;1.10;;
63034;SDS011;59750;53.356;-1.458;2022-12-07T13:15:34;2.33;;;0.80;;
63034;SDS011;59750;53.356;-1.458;2022-12-07T13:23:23;3.65;;;1.25;;
63034;SDS011;59750;53.356;-1.458;2022-12-07T13:28:38;3.25;;;0.95;;
63034;SDS011;59750;53.356;-1.458;2022-12-07T13:33:51;3.10;;;1.02;;
63034;SDS011;59750;53.356;-1.458;2022-12-07T13:38:51;3.22;;;1.10;;
63034;SDS011;59750;53.356;-1.458;2022-12-07T13:41:21;3.92;;;1.00;;
63034;SDS011;59750;53.356;-1.458;2022-12-07T13:46:23;2.30;;;0.90;;
63034;SDS011;59750;53.356;-1.458;2022-12-07T13:48:56;5.15;;;1.25;;
63034;SDS011;59750;53.356;-1.458;2022-12-07T13:51:24;1.95;;;1.20;;
63034;SDS011;59750;53.356;-1.458;2022-12-07T13:53:54;2.28;;;1.00;;
63034;SDS011;59750;53.356;-1.458;2022-12-07T13:58:54;2.38;;;1.00;;
63034;SDS011;59750;53.356;-1.458;2022-12-07T14:01:21;1.77;;;0.80;;
63034;SDS011;59750;53.356;-1.458;2022-12-07T14:03:49;2.00;;;1.10;;
63034;SDS011;59750;53.356;-1.458;2022-12-07T14:06:19;3.50;;;1.92;;
63034;SDS011;59750;53.356;-1.458;2022-12-07T14:11:45;7.65;;;1.95;;
63034;SDS011;59750;53.356;-1.458;2022-12-07T14:14:14;2.90;;;1.00;;
63034;SDS011;59750;53.356;-1.458;2022-12-07T14:16:54;4.30;;;0.95;;
63034;SDS011;59750;53.356;-1.458;2022-12-07T14:22:32;3.95;;;1.25;;
63034;SDS011;59750;53.356;-1.458;2022-12-07T14:27:54;5.00;;;1.55;;
63034;SDS011;59750;53.356;-1.458;2022-12-07T14:30:24;3.05;;;1.10;;
63034;SDS011;59750;53.356;-1.458;2022-12-07T14:32:54;4.40;;;1.50;;
63034;SDS011;59750;53.356;-1.458;2022-12-07T14:35:23;2.97;;;1.88;;
63034;SDS011;59750;53.356;-1.458;2022-12-07T14:37:50;3.55;;;1.60;;
63034;SDS011;59750;53.356;-1.458;2022-12-07T14:40:19;4.20;;;1.92;;
63034;SDS011;59750;53.356;-1.458;2022-12-07T14:42:51;3.73;;;2.17;;
63034;SDS011;59750;53.356;-1.458;2022-12-07T14:45:21;5.00;;;2.63;;
63034;SDS011;59750;53.356;-1.458;2022-12-07T14:47:49;4.15;;;2.22;;
63034;SDS011;59750;53.356;-1.458;2022-12-07T14:50:16;7.10;;;3.25;;
63034;SDS011;59750;53.356;-1.458;2022-12-07T14:52:47;5.20;;;3.42;;
63034;SDS011;59750;53.356;-1.458;2022-12-07T14:55:25;6.38;;;3.40;;
63034;SDS011;59750;53.356;-1.458;2022-12-07T14:57:51;4.50;;;2.85;;
63034;SDS011;59750;53.356;-1.458;2022-12-07T15:00:19;7.10;;;3.47;;
63034;SDS011;59750;53.356;-1.458;2022-12-07T15:02:47;5.00;;;3.20;;
63034;SDS011;59750;53.356;-1.458;2022-12-07T15:05:15;5.28;;;3.65;;
63034;SDS011;59750;53.356;-1.458;2022-12-07T15:07:42;6.32;;;3.13;;
63034;SDS011;59750;53.356;-1.458;2022-12-07T15:10:13;8.50;;;4.25;;
63034;SDS011;59750;53.356;-1.458;2022-12-07T15:12:43;6.97;;;4.20;;
63034;SDS011;59750;53.356;-1.458;2022-12-07T15:15:10;6.25;;;3.92;;
63034;SDS011;59750;53.356;-1.458;2022-12-07T15:17:36;6.15;;;3.90;;
63034;SDS011;59750;53.356;-1.458;2022-12-07T15:20:02;9.82;;;4.50;;
63034;SDS011;59750;53.356;-1.458;2022-12-07T15:22:29;8.55;;;4.60;;
63034;SDS011;59750;53.356;-1.458;2022-12-07T15:24:57;8.82;;;5.40;;
63034;SDS011;59750;53.356;-1.458;2022-12-07T15:27:24;7.60;;;4.90;;
63034;SDS011;59750;53.356;-1.458;2022-12-07T15:29:50;10.63;;;5.57;;
63034;SDS011;59750;53.356;-1.458;2022-12-07T15:32:16;8.65;;;5.68;;
63034;SDS011;59750;53.356;-1.458;2022-12-07T15:34:42;8.48;;;5.05;;
63034;SDS011;59750;53.356;-1.458;2022-12-07T15:37:08;8.05;;;5.50;;
63034;SDS011;59750;53.356;-1.458;2022-12-07T15:39:35;12.52;;;4.97;;
63034;SDS011;59750;53.356;-1.458;2022-12-07T15:42:02;9.90;;;5.72;;
63034;SDS011;59750;53.356;-1.458;2022-12-07T15:44:28;9.27;;;5.68;;
63034;SDS011;59750;53.356;-1.458;2022-12-07T15:47:13;10.75;;;5.03;;
63034;SDS011;59750;53.356;-1.458;2022-12-07T15:49:39;8.90;;;6.28;;
63034;SDS011;59750;53.356;-1.458;2022-12-07T15:52:05;10.40;;;5.53;;
63034;SDS011;59750;53.356;-1.458;2022-12-07T15:54:31;11.32;;;6.05;;
63034;SDS011;59750;53.356;-1.458;2022-12-07T15:56:58;8.05;;;5.20;;
63034;SDS011;59750;53.356;-1.458;2022-12-07T15:59:25;10.18;;;5.75;;
63034;SDS011;59750;53.356;-1.458;2022-12-07T16:01:53;8.88;;;5.22;;
63034;SDS011;59750;53.356;-1.458;2022-12-07T16:04:20;8.00;;;5.68;;
63034;SDS011;59750;53.356;-1.458;2022-12-07T16:06:46;10.60;;;6.13;;
63034;SDS011;59750;53.356;-1.458;2022-12-07T16:09:12;7.63;;;4.88;;
63034;SDS011;59750;53.356;-1.458;2022-12-07T16:11:38;13.77;;;5.78;;
63034;SDS011;59750;53.356;-1.458;2022-12-07T16:14:04;9.93;;;5.60;;
63034;SDS011;59750;53.356;-1.458;2022-12-07T16:16:31;12.48;;;5.90;;
63034;SDS011;59750;53.356;-1.458;2022-12-07T16:18:58;9.70;;;5.18;;
63034;SDS011;59750;53.356;-1.458;2022-12-07T16:21:24;8.07;;;5.75;;
63034;SDS011;59750;53.356;-1.458;2022-12-07T16:23:50;9.55;;;5.57;;
63034;SDS011;59750;53.356;-1.458;2022-12-07T16:26:17;8.65;;;4.30;;
63034;SDS011;59750;53.356;-1.458;2022-12-07T16:28:45;8.55;;;5.40;;
63034;SDS011;59750;53.356;-1.458;2022-12-07T16:31:14;66.43;;;27.50;;
63034;SDS011;59750;53.356;-1.458;2022-12-07T16:33:42;113.72;;;51.33;;
63034;SDS011;59750;53.356;-1.458;2022-12-07T16:36:11;105.30;;;47.88;;
63034;SDS011;59750;53.356;-1.458;2022-12-07T16:38:39;73.75;;;34.72;;
63034;SDS011;59750;53.356;-1.458;2022-12-07T16:41:05;25.67;;;15.10;;
63034;SDS011;59750;53.356;-1.458;2022-12-07T16:43:32;30.10;;;17.23;;
63034;SDS011;59750;53.356;-1.458;2022-12-07T16:45:58;33.55;;;19.85;;
63034;SDS011;59750;53.356;-1.458;2022-12-07T16:48:24;50.85;;;28.00;;
63034;SDS011;59750;53.356;-1.458;2022-12-07T16:50:50;50.58;;;34.08;;
63034;SDS011;59750;53.356;-1.458;2022-12-07T16:53:20;47.50;;;28.83;;
63034;SDS011;59750;53.356;-1.458;2022-12-07T16:55:47;32.60;;;21.40;;
63034;SDS011;59750;53.356;-1.458;2022-12-07T16:58:14;26.75;;;17.20;;
63034;SDS011;59750;53.356;-1.458;2022-12-07T17:00:41;29.25;;;17.17;;
63034;SDS011;59750;53.356;-1.458;2022-12-07T17:03:09;26.73;;;15.18;;
63034;SDS011;59750;53.356;-1.458;2022-12-07T17:05:39;13.73;;;8.68;;
63034;SDS011;59750;53.356;-1.458;2022-12-07T17:08:07;11.73;;;8.15;;
63034;SDS011;59750;53.356;-1.458;2022-12-07T17:10:35;14.20;;;7.88;;
63034;SDS011;59750;53.356;-1.458;2022-12-07T17:13:04;10.38;;;6.05;;
63034;SDS011;59750;53.356;-1.458;2022-12-07T17:15:54;12.25;;;6.93;;
63034;SDS011;59750;53.356;-1.458;2022-12-07T17:18:25;12.20;;;8.35;;
63034;SDS011;59750;53.356;-1.458;2022-12-07T17:20:53;16.25;;;10.55;;
63034;SDS011;59750;53.356;-1.458;2022-12-07T17:23:19;39.35;;;24.27;;
63034;SDS011;59750;53.356;-1.458;2022-12-07T17:25:45;60.80;;;35.17;;
63034;SDS011;59750;53.356;-1.458;2022-12-07T17:28:11;56.05;;;32.67;;
63034;SDS011;59750;53.356;-1.458;2022-12-07T17:30:38;67.20;;;39.72;;
63034;SDS011;59750;53.356;-1.458;2022-12-07T17:33:04;68.55;;;38.55;;
63034;SDS011;59750;53.356;-1.458;2022-12-07T17:35:30;44.08;;;24.63;;
63034;SDS011;59750;53.356;-1.458;2022-12-07T17:37:56;41.25;;;22.80;;
63034;SDS011;59750;53.356;-1.458;2022-12-07T17:40:22;33.72;;;20.70;;
63034;SDS011;59750;53.356;-1.458;2022-12-07T17:42:48;25.05;;;15.82;;
63034;SDS011;59750;53.356;-1.458;2022-12-07T17:45:16;21.63;;;13.05;;
63034;SDS011;59750;53.356;-1.458;2022-12-07T17:47:42;14.43;;;9.55;;
63034;SDS011;59750;53.356;-1.458;2022-12-07T17:50:09;15.18;;;9.30;;
63034;SDS011;59750;53.356;-1.458;2022-12-07T17:52:37;14.68;;;7.45;;
63034;SDS011;59750;53.356;-1.458;2022-12-07T17:55:23;11.32;;;6.60;;
63034;SDS011;59750;53.356;-1.458;2022-12-07T17:57:49;12.00;;;5.60;;
63034;SDS011;59750;53.356;-1.458;2022-12-07T18:00:16;10.88;;;6.28;;
63034;SDS011;59750;53.356;-1.458;2022-12-07T18:02:43;6.32;;;5.00;;
63034;SDS011;59750;53.356;-1.458;2022-12-07T18:05:09;8.35;;;5.35;;
63034;SDS011;59750;53.356;-1.458;2022-12-07T18:07:36;6.00;;;3.97;;
63034;SDS011;59750;53.356;-1.458;2022-12-07T18:10:03;5.28;;;3.88;;
63034;SDS011;59750;53.356;-1.458;2022-12-07T18:12:31;6.22;;;4.95;;
63034;SDS011;59750;53.356;-1.458;2022-12-07T18:14:58;11.57;;;4.90;;
63034;SDS011;59750;53.356;-1.458;2022-12-07T18:17:24;10.50;;;4.45;;
63034;SDS011;59750;53.356;-1.458;2022-12-07T18:19:50;7.93;;;3.80;;
63034;SDS011;59750;53.356;-1.458;2022-12-07T18:22:16;6.85;;;3.83;;
63034;SDS011;59750;53.356;-1.458;2022-12-07T18:24:42;4.45;;;3.58;;
63034;SDS011;59750;53.356;-1.458;2022-12-07T18:27:08;5.88;;;3.95;;
63034;SDS011;59750;53.356;-1.458;2022-12-07T18:29:33;7.35;;;3.67;;
63034;SDS011;59750;53.356;-1.458;2022-12-07T18:31:59;5.93;;;3.97;;
63034;SDS011;59750;53.356;-1.458;2022-12-07T18:34:25;5.50;;;3.67;;
63034;SDS011;59750;53.356;-1.458;2022-12-07T18:36:53;5.43;;;3.63;;
63034;SDS011;59750;53.356;-1.458;2022-12-07T18:39:20;8.35;;;4.40;;
63034;SDS011;59750;53.356;-1.458;2022-12-07T18:41:46;7.30;;;3.65;;
63034;SDS011;59750;53.356;-1.458;2022-12-07T18:44:13;5.45;;;3.63;;
63034;SDS011;59750;53.356;-1.458;2022-12-07T18:46:40;6.05;;;4.35;;
63034;SDS011;59750;53.356;-1.458;2022-12-07T18:49:10;5.18;;;4.03;;
63034;SDS011;59750;53.356;-1.458;2022-12-07T18:51:38;8.60;;;4.82;;
63034;SDS011;59750;53.356;-1.458;2022-12-07T18:54:04;6.88;;;3.90;;
63034;SDS011;59750;53.356;-1.458;2022-12-07T18:56:30;10.15;;;6.05;;
63034;SDS011;59750;53.356;-1.458;2022-12-07T18:58:57;12.88;;;7.57;;
63034;SDS011;59750;53.356;-1.458;2022-12-07T19:01:44;10.45;;;7.13;;
63034;SDS011;59750;53.356;-1.458;2022-12-07T19:04:13;12.57;;;6.45;;
63034;SDS011;59750;53.356;-1.458;2022-12-07T19:06:41;10.48;;;5.35;;
63034;SDS011;59750;53.356;-1.458;2022-12-07T19:09:09;8.13;;;5.15;;
63034;SDS011;59750;53.356;-1.458;2022-12-07T19:11:36;5.15;;;3.60;;
63034;SDS011;59750;53.356;-1.458;2022-12-07T19:16:55;5.50;;;4.30;;
63034;SDS011;59750;53.356;-1.458;2022-12-07T19:19:27;7.13;;;4.32;;
63034;SDS011;59750;53.356;-1.458;2022-12-07T19:21:55;6.43;;;3.28;;
63034;SDS011;59750;53.356;-1.458;2022-12-07T19:24:24;5.70;;;3.55;;
63034;SDS011;59750;53.356;-1.458;2022-12-07T19:26:51;7.10;;;4.45;;
63034;SDS011;59750;53.356;-1.458;2022-12-07T19:29:17;5.78;;;3.75;;
63034;SDS011;59750;53.356;-1.458;2022-12-07T19:31:44;6.82;;;3.92;;
63034;SDS011;59750;53.356;-1.458;2022-12-07T19:34:10;7.18;;;4.05;;
63034;SDS011;59750;53.356;-1.458;2022-12-07T19:36:38;7.35;;;3.78;;
63034;SDS011;59750;53.356;-1.458;2022-12-07T19:39:04;8.02;;;3.35;;
63034;SDS011;59750;53.356;-1.458;2022-12-07T19:41:31;9.23;;;4.05;;
63034;SDS011;59750;53.356;-1.458;2022-12-07T19:43:58;6.78;;;4.25;;
63034;SDS011;59750;53.356;-1.458;2022-12-07T19:46:27;5.97;;;4.55;;
63034;SDS011;59750;53.356;-1.458;2022-12-07T19:48:53;6.03;;;3.67;;
63034;SDS011;59750;53.356;-1.458;2022-12-07T19:51:20;10.73;;;3.67;;
63034;SDS011;59750;53.356;-1.458;2022-12-07T19:53:46;6.22;;;3.67;;
63034;SDS011;59750;53.356;-1.458;2022-12-07T19:56:13;7.20;;;4.30;;
63034;SDS011;59750;53.356;-1.458;2022-12-07T19:58:41;6.40;;;4.07;;
63034;SDS011;59750;53.356;-1.458;2022-12-07T20:01:07;9.45;;;4.20;;
63034;SDS011;59750;53.356;-1.458;2022-12-07T20:03:33;7.18;;;4.35;;
63034;SDS011;59750;53.356;-1.458;2022-12-07T20:05:59;5.93;;;3.80;;
63034;SDS011;59750;53.356;-1.458;2022-12-07T20:08:26;8.52;;;4.10;;
63034;SDS011;59750;53.356;-1.458;2022-12-07T20:10:52;7.28;;;4.22;;
63034;SDS011;59750;53.356;-1.458;2022-12-07T20:13:19;6.40;;;3.75;;
63034;SDS011;59750;53.356;-1.458;2022-12-07T20:16:04;7.35;;;4.20;;
63034;SDS011;59750;53.356;-1.458;2022-12-07T20:18:30;7.78;;;4.65;;
63034;SDS011;59750;53.356;-1.458;2022-12-07T20:20:57;6.38;;;4.10;;
63034;SDS011;59750;53.356;-1.458;2022-12-07T20:23:25;6.18;;;4.40;;
63034;SDS011;59750;53.356;-1.458;2022-12-07T20:25:53;8.02;;;4.07;;
63034;SDS011;59750;53.356;-1.458;2022-12-07T20:28:21;6.07;;;3.65;;
63034;SDS011;59750;53.356;-1.458;2022-12-07T20:30:50;5.18;;;3.47;;
63034;SDS011;59750;53.356;-1.458;2022-12-07T20:33:18;5.25;;;3.25;;
63034;SDS011;59750;53.356;-1.458;2022-12-07T20:35:45;8.15;;;3.17;;
63034;SDS011;59750;53.356;-1.458;2022-12-07T20:38:12;8.05;;;3.67;;
63034;SDS011;59750;53.356;-1.458;2022-12-07T20:40:44;5.60;;;3.67;;
63034;SDS011;59750;53.356;-1.458;2022-12-07T20:43:12;8.13;;;3.50;;
63034;SDS011;59750;53.356;-1.458;2022-12-07T20:48:23;8.68;;;4.15;;
63034;SDS011;59750;53.356;-1.458;2022-12-07T20:50:49;6.47;;;3.75;;
63034;SDS011;59750;53.356;-1.458;2022-12-07T20:53:15;4.88;;;3.25;;
63034;SDS011;59750;53.356;-1.458;2022-12-07T20:55:42;7.25;;;4.43;;
63034;SDS011;59750;53.356;-1.458;2022-12-07T20:58:08;6.00;;;3.63;;
63034;SDS011;59750;53.356;-1.458;2022-12-07T21:00:35;5.78;;;3.72;;
63034;SDS011;59750;53.356;-1.458;2022-12-07T21:03:02;6.40;;;3.45;;
63034;SDS011;59750;53.356;-1.458;2022-12-07T21:05:29;9.10;;;4.32;;
63034;SDS011;59750;53.356;-1.458;2022-12-07T21:07:55;3.90;;;2.72;;
63034;SDS011;59750;53.356;-1.458;2022-12-07T21:10:22;4.60;;;3.25;;
63034;SDS011;59750;53.356;-1.458;2022-12-07T21:12:48;5.13;;;3.90;;
63034;SDS011;59750;53.356;-1.458;2022-12-07T21:15:14;4.43;;;3.10;;
63034;SDS011;59750;53.356;-1.458;2022-12-07T21:17:40;6.40;;;3.60;;
63034;SDS011;59750;53.356;-1.458;2022-12-07T21:20:06;5.45;;;3.88;;
63034;SDS011;59750;53.356;-1.458;2022-12-07T21:22:33;3.95;;;2.90;;
63034;SDS011;59750;53.356;-1.458;2022-12-07T21:24:59;6.55;;;3.78;;
63034;SDS011;59750;53.356;-1.458;2022-12-07T21:27:25;5.80;;;3.75;;
63034;SDS011;59750;53.356;-1.458;2022-12-07T21:29:51;9.95;;;4.32;;
63034;SDS011;59750;53.356;-1.458;2022-12-07T21:32:17;8.43;;;3.08;;
63034;SDS011;59750;53.356;-1.458;2022-12-07T21:34:43;6.18;;;4.22;;
63034;SDS011;59750;53.356;-1.458;2022-12-07T21:37:10;5.47;;;3.50;;
63034;SDS011;59750;53.356;-1.458;2022-12-07T21:39:36;3.22;;;2.58;;
63034;SDS011;59750;53.356;-1.458;2022-12-07T21:42:02;6.57;;;2.78;;
63034;SDS011;59750;53.356;-1.458;2022-12-07T21:44:28;4.85;;;2.58;;
63034;SDS011;59750;53.356;-1.458;2022-12-07T21:46:54;6.38;;;3.15;;
63034;SDS011;59750;53.356;-1.458;2022-12-07T21:49:20;6.05;;;3.67;;
63034;SDS011;59750;53.356;-1.458;2022-12-07T21:51:46;6.25;;;4.07;;
63034;SDS011;59750;53.356;-1.458;2022-12-07T21:54:12;7.53;;;4.32;;
63034;SDS011;59750;53.356;-1.458;2022-12-07T21:56:38;6.75;;;4.35;;
63034;SDS011;59750;53.356;-1.458;2022-12-07T21:59:10;8.80;;;5.00;;
63034;SDS011;59750;53.356;-1.458;2022-12-07T22:01:38;6.45;;;3.80;;
63034;SDS011;59750;53.356;-1.458;2022-12-07T22:04:06;6.82;;;4.32;;
63034;SDS011;59750;53.356;-1.458;2022-12-07T22:06:34;9.27;;;3.92;;
63034;SDS011;59750;53.356;-1.458;2022-12-07T22:09:02;7.05;;;4.18;;
63034;SDS011;59750;53.356;-1.458;2022-12-07T22:11:29;8.88;;;4.45;;
63034;SDS011;59750;53.356;-1.458;2022-12-07T22:13:55;6.85;;;4.07;;
63034;SDS011;59750;53.356;-1.458;2022-12-07T22:16:43;10.07;;;4.50;;
63034;SDS011;59750;53.356;-1.458;2022-12-07T22:19:09;6.05;;;3.88;;
63034;SDS011;59750;53.356;-1.458;2022-12-07T22:21:35;4.82;;;4.00;;
63034;SDS011;59750;53.356;-1.458;2022-12-07T22:24:02;8.70;;;5.55;;
63034;SDS011;59750;53.356;-1.458;2022-12-07T22:26:29;11.35;;;6.45;;
63034;SDS011;59750;53.356;-1.458;2022-12-07T22:28:56;10.70;;;7.07;;
63034;SDS011;59750;53.356;-1.458;2022-12-07T22:31:22;11.65;;;8.13;;
63034;SDS011;59750;53.356;-1.458;2022-12-07T22:33:49;12.55;;;6.95;;
63034;SDS011;59750;53.356;-1.458;2022-12-07T22:36:15;10.45;;;6.00;;
63034;SDS011;59750;53.356;-1.458;2022-12-07T22:38:42;10.95;;;6.05;;
63034;SDS011;59750;53.356;-1.458;2022-12-07T22:41:11;7.55;;;5.15;;
63034;SDS011;59750;53.356;-1.458;2022-12-07T22:43:48;9.38;;;4.40;;
63034;SDS011;59750;53.356;-1.458;2022-12-07T22:46:14;6.80;;;4.15;;
63034;SDS011;59750;53.356;-1.458;2022-12-07T22:48:40;5.65;;;4.53;;
63034;SDS011;59750;53.356;-1.458;2022-12-07T22:53:54;7.72;;;4.00;;
63034;SDS011;59750;53.356;-1.458;2022-12-07T22:56:24;8.85;;;5.00;;
63034;SDS011;59750;53.356;-1.458;2022-12-07T22:58:51;11.77;;;5.93;;
63034;SDS011;59750;53.356;-1.458;2022-12-07T23:01:17;9.10;;;5.53;;
63034;SDS011;59750;53.356;-1.458;2022-12-07T23:03:44;9.15;;;4.50;;
63034;SDS011;59750;53.356;-1.458;2022-12-07T23:06:15;17.33;;;8.25;;
63034;SDS011;59750;53.356;-1.458;2022-12-07T23:08:44;24.92;;;11.10;;
63034;SDS011;59750;53.356;-1.458;2022-12-07T23:11:11;29.08;;;12.30;;
63034;SDS011;59750;53.356;-1.458;2022-12-07T23:14:00;34.85;;;14.10;;
63034;SDS011;59750;53.356;-1.458;2022-12-07T23:16:28;33.97;;;14.82;;
63034;SDS011;59750;53.356;-1.458;2022-12-07T23:18:55;32.45;;;13.77;;
63034;SDS011;59750;53.356;-1.458;2022-12-07T23:21:21;25.48;;;10.65;;
63034;SDS011;59750;53.356;-1.458;2022-12-07T23:23:47;24.30;;;11.15;;
63034;SDS011;59750;53.356;-1.458;2022-12-07T23:26:12;15.55;;;8.07;;
63034;SDS011;59750;53.356;-1.458;2022-12-07T23:28:38;11.98;;;6.40;;
63034;SDS011;59750;53.356;-1.458;2022-12-07T23:31:11;9.30;;;4.70;;
63034;SDS011;59750;53.356;-1.458;2022-12-07T23:33:39;8.40;;;5.07;;
63034;SDS011;59750;53.356;-1.458;2022-12-07T23:36:10;9.07;;;4.50;;
63034;SDS011;59750;53.356;-1.458;2022-12-07T23:38:39;6.82;;;3.83;;
63034;SDS011;59750;53.356;-1.458;2022-12-07T23:41:07;6.60;;;3.50;;
63034;SDS011;59750;53.356;-1.458;2022-12-07T23:43:37;6.65;;;3.40;;
63034;SDS011;59750;53.356;-1.458;2022-12-07T23:46:07;6.25;;;3.60;;
63034;SDS011;59750;53.356;-1.458;2022-12-07T23:48:36;5.28;;;3.40;;
63034;SDS011;59750;53.356;-1.458;2022-12-07T23:51:03;9.55;;;4.75;;
63034;SDS011;59750;53.356;-1.458;2022-12-07T23:53:33;7.13;;;4.07;;
63034;SDS011;59750;53.356;-1.458;2022-12-07T23:56:00;7.15;;;4.25;;
63034;SDS011;59750;53.356;-1.458;2022-12-07T23:58:25;4.20;;;3.50;;
